createdAt,value
2022-11-27T00:00:03.152Z,941.66
2022-11-27T00:05:03.284Z,941.64
2022-11-27T00:10:03.191Z,941.64
2022-11-27T00:15:03.047Z,941.64
2022-11-27T00:20:04.233Z,941.68
2022-11-27T00:25:03.155Z,941.80
2022-11-27T00:30:03.174Z,941.82
2022-11-27T00:35:03.103Z,941.86
2022-11-27T00:40:03.222Z,941.92
2022-11-27T00:45:02.916Z,941.98
2022-11-27T00:50:03.242Z,941.98
2022-11-27T00:55:03.058Z,942.04
2022-11-27T01:00:03.198Z,942.02
2022-11-27T01:05:03.108Z,942.04
2022-11-27T01:10:03.162Z,942.08
2022-11-27T19:55:05.761Z,938.25
2022-11-27T20:00:03.110Z,938.21
2022-11-27T20:05:03.154Z,938.23
2022-11-27T20:10:03.059Z,938.23
2022-11-27T20:15:08.011Z,938.25
2022-11-27T20:20:03.143Z,938.27
2022-11-27T20:25:20.107Z,938.31
2022-11-27T20:30:03.151Z,938.29
2022-11-27T20:35:03.188Z,938.27
2022-11-27T20:40:03.148Z,938.27
2022-11-27T20:45:03.032Z,938.35
2022-11-27T20:50:03.145Z,938.52
2022-11-27T20:55:03.114Z,938.60
2022-11-27T21:00:03.168Z,938.78
2022-11-27T21:05:03.038Z,938.96
2022-11-27T21:10:03.443Z,939.51
2022-11-27T21:15:03.031Z,939.86
2022-11-27T21:20:03.147Z,940.06
2022-11-27T21:25:03.011Z,940.15
2022-11-27T21:30:03.180Z,940.21
2022-11-27T21:35:03.002Z,940.21
2022-11-27T21:40:03.206Z,939.98
2022-11-27T21:50:03.208Z,939.94
2022-11-27T21:55:05.585Z,939.88
2022-11-27T22:00:03.165Z,939.78
2022-11-27T22:05:03.004Z,939.78
2022-11-27T22:10:03.211Z,939.74
2022-11-27T22:15:03.103Z,939.68
2022-11-27T22:20:03.115Z,939.66
2022-11-27T22:25:03.115Z,939.68
2022-11-27T22:30:03.164Z,939.74
2022-11-27T22:35:03.010Z,939.82
2022-11-27T22:40:03.105Z,939.90
2022-11-27T22:45:03.152Z,939.96
2022-11-27T22:50:03.058Z,939.98
2022-11-27T22:55:03.111Z,939.92
2022-11-27T23:00:03.100Z,939.82
2022-11-27T23:05:03.005Z,939.76
2022-11-27T23:10:03.085Z,939.80
2022-11-27T23:15:03.028Z,939.86
2022-11-27T23:20:03.325Z,939.88
2022-11-27T23:25:03.085Z,939.90
2022-11-27T23:30:03.174Z,939.80
2022-11-27T23:35:02.991Z,939.74
2022-11-27T23:40:03.096Z,939.74
2022-11-27T23:45:03.066Z,939.74
2022-11-27T23:50:03.039Z,939.78
2022-11-27T23:55:02.996Z,939.84
